Mineral'Nye Vody, Russia

3:17 PM MSK on August 27, 2016 (GMT +0300)
Mineralnyye Vody | | Change Station

Elev 1030 ft 44.23 °N, 43.08 °E | Updated 17 minutes ago

Scattered Clouds
Scattered Clouds
81 °F
Feels Like 81 °F
N
13
Wind Variable Wind from NNE

Today
High -- | Low -- °F
--% Chance of Precip.
Yesterday
High -- | Low -- °F
Precip. -- in
Pressure 30.06 in
Visibility 6.2 miles
Clouds Scattered Clouds 5100 ft
Heat Index 81 °F
Dew Point 59 °F
Humidity 48%
Rainfall 0.00 in
Snow Depth Not available.
5:25 AM 6:52 PM
Waning Crescent, 25% visible
METAR URMM 271200Z 02006MPS 9999 SCT051 BKN/// 27/15 Q1018 R30/000070 NOSIG RMK QFE735/0980
Pressure 30.06 in
Visibility 6.2 miles
Clouds Scattered Clouds 5100 ft
Heat Index 81 °F
Dew Point 59 °F
Humidity 48%
Rainfall 0.00 in
Snow Depth Not available.
5:25 AM 6:52 PM
Waning Crescent, 25% visible
METAR URMM 271200Z 02006MPS 9999 SCT051 BKN/// 27/15 Q1018 R30/000070 NOSIG RMK QFE735/0980

10-Day Weather Forecast

×

Almanac

Astronomy

Aug. 27, 2016 Rise Set
Actual Time
Civil Twilight
Nautical Twilight
Astronomical Twilight
Moon
Length of Visible Light
Length of Day
Tomorrow will be .
, % of the Moon is Illuminated

Today's Extremes

Country Highs Country Lows

Community

WunderPhotos

Upload Photos

1,935,325 photos uploaded!

WunderBlog® & News

Nearby

Air Quality

  Air Quality AQ Index Pollutant
Not available.

Snow Depth

Station Depth Elevation

Earthquake Activity

City Distance Mag. Time & Date
Minimum magnitude displayed is 2.5.

Coastal Water Temperatures

Place Temperature

Stations

Nearby Weather Stations

Station Location Temp. Windchill Dew Point Humidity Wind Precip. Elev Updated Type